FMMISBKP

Guest
Details From FMMI - Ivato
To SBKP - Sao Paulo Viracopos
Flight Number -
Tags Generated
Created
Modified
Stats Distance 5,213 nm / 9,655 km
Max Altitude 0 ft / 0 m
Waypoints 5
Social Downloads 0
Likes 0
Share VATSIM

Download

Looking for another format? Having issues loading an existing format? Contact us
Advertisement - Login to hide

Notes

Generated

Route

FMMI NESAG MH CPN SBKP

ID Type Via Altitude Latitude Longitude Leg Dist Tot Dist Heading (true) Name
O FMMI APT - 0 ft / 0 m -18.79479˚ 47.46427˚ - 0 nm - -
NESAG FIX - 0 ft / 0 m -24.94672˚ 28.85098˚ 1099 nm 1099 nm 247° / 254° -
MH NDB - 0 ft / 0 m -25.74143˚ 25.57499˚ 184 nm 1284 nm 254° / 256° MAFIKENG NDB
CPN VOR - 0 ft / 0 m -23.00871˚ -47.12904˚ 3927 nm 5211 nm 255° / 289° CAMPINAS VOR-DME
O SBKP APT - 0 ft / 0 m -22.99843˚ -47.14702˚ 1 nm 5213 nm 302° / 302° -

Altitude Profile

Advertisement - Login to hide

Weather


0- 5 10 15 20 25 30 35+ Temperature / ° C

Clouds and Precipitation
Forecast for 2018-05-24 18:00 UTC. Updated 3 hours ago

Ground ~20,000 ft ~40,000 ft Winds

FMMI

Details ICAO FMMI (TNR)
Name IVATO
Region Comoros, Mayotte, Réunion and Madagascar
Timezone Indian/Antananarivo (UTC+3.0)
Stats Elevation 4,198 ft / 1,280 m (AMSL)
Location -18.796950° 47.478806°
Runways 1
Magnetic Variation 15.172° W

METAR

FMMI 242000Z 14006KT 110V170 9999 FEW017 BKN020 16/15 Q1024 NOSIG

Decode

TAF

TAF FMMI 241100Z 2412/2518 12009KT 9999 BKN020 PROB30 TEMPO 2500/2504 4500 DZRA

Decode

Departure Runways

ID Width Length Bearing (true) Bearing (mag) Surface Threshold Offset Overrun Length
11 148 ft / 45 m 10,167 ft / 3,099 m 98.92° 114.09° Asphalt 0 ft / 0 m 90 ft / 27 m
29 148 ft / 45 m 10,167 ft / 3,099 m 278.91° 294.08° Asphalt 0 ft / 0 m 90 ft / 27 m

SBKP

Details ICAO SBKP (VCP)
Name Sao Paulo Viracopos
Region Brazil
Timezone America/Sao_Paulo (UTC-3.0)
Stats Elevation 2,170 ft / 661 m (AMSL)
Location -23.007383° -47.134522°
Runways 1
Magnetic Variation 21.249° W

METAR

SBKP 242000Z 22005KT 9999 FEW030 24/10 Q1022

Decode

TAF

TAF SBKP 241601Z 2418/2518 16005KT CAVOK TX24/2418Z TN13/2508Z BECMG 2420/2422 14013KT BECMG 2505/2507 12010KT BECMG 2512/2514 11008KT BECMG 2514/2516 16007KT RMK PGM

Decode

Destination Runways

ID Width Length Bearing (true) Bearing (mag) Surface Threshold Offset Overrun Length
15 148 ft / 45 m 10,639 ft / 3,243 m 127.91° 149.16° Asphalt 0 ft / 0 m 205 ft / 62 m
33 148 ft / 45 m 10,639 ft / 3,243 m 307.90° 329.15° Asphalt 0 ft / 0 m 205 ft / 62 m

Approach Navaids

Runway Type Ident Frequency Range Bearing (true) Bearing (mag) Slope Elevation
15 Localiser IKP 110.30 MHz 18 nm / 33 km 127.95° 149.20° - 2,170 ft / 661 m (AMSL)
15 Glidescope IKP 110.30 MHz 10 nm / 19 km 127.90° 149.15° 3.00° 2,170 ft / 661 m (AMSL)

Popular Alternatives